createdAt,value
2017-07-03T00:01:42.725Z,6.83
2017-07-03T00:04:09.414Z,12.07
2017-07-03T00:06:36.088Z,10.63
2017-07-03T00:09:02.750Z,11.80
2017-07-03T00:11:29.408Z,11.20
2017-07-03T00:13:56.113Z,12.52
2017-07-03T00:16:22.748Z,12.70
2017-07-03T00:18:49.440Z,12.60
2017-07-03T00:21:16.084Z,8.27
2017-07-03T00:23:42.715Z,15.43
2017-07-03T00:26:09.401Z,12.80
2017-07-03T00:28:36.070Z,12.10
2017-07-03T00:31:02.716Z,14.60
2017-07-03T00:33:29.379Z,8.95
2017-07-03T00:35:56.017Z,11.93
2017-07-03T00:38:22.667Z,11.70
2017-07-03T00:40:49.342Z,7.32
2017-07-03T00:43:16.017Z,11.70
2017-07-03T00:45:42.672Z,12.93
2017-07-03T00:48:09.443Z,14.38
2017-07-03T00:50:36.083Z,12.90
2017-07-03T00:53:02.738Z,5.73
2017-07-03T00:55:29.438Z,13.05
2017-07-03T00:57:56.076Z,10.17
2017-07-03T01:00:22.738Z,8.45
2017-07-03T01:02:49.421Z,10.35
2017-07-03T01:05:16.079Z,11.50
2017-07-03T01:07:42.738Z,13.50
2017-07-03T01:10:09.431Z,12.80
2017-07-03T01:12:36.068Z,12.50
2017-07-03T01:15:02.730Z,19.40
2017-07-03T01:17:29.434Z,13.50
2017-07-03T01:19:56.094Z,9.80
2017-07-03T01:22:22.742Z,8.50
2017-07-03T01:24:49.490Z,11.70
2017-07-03T01:27:16.142Z,9.53
2017-07-03T01:29:42.834Z,10.40
2017-07-03T01:32:09.499Z,6.23
2017-07-03T01:34:36.179Z,13.23
2017-07-03T01:37:02.860Z,5.93
2017-07-03T01:39:29.562Z,9.73
2017-07-03T01:41:56.194Z,9.33
2017-07-03T01:44:22.828Z,6.77
2017-07-03T01:46:49.507Z,7.27
2017-07-03T01:49:16.148Z,10.03
2017-07-03T01:51:42.783Z,8.60
2017-07-03T01:54:09.462Z,12.30
2017-07-03T01:56:36.130Z,10.13
2017-07-03T01:59:02.799Z,12.33
2017-07-03T02:01:29.482Z,12.97
2017-07-03T02:03:56.120Z,7.33
2017-07-03T02:06:22.756Z,6.00
2017-07-03T02:08:49.498Z,5.73
2017-07-03T02:11:16.150Z,7.55
2017-07-03T02:13:42.799Z,10.90
2017-07-03T02:16:09.427Z,5.63
2017-07-03T02:18:36.067Z,7.70
2017-07-03T02:21:02.766Z,9.60
2017-07-03T02:23:29.406Z,8.27
2017-07-03T02:25:56.107Z,10.43
2017-07-03T02:28:22.794Z,9.97
2017-07-03T02:30:49.446Z,9.50
2017-07-03T02:33:16.104Z,5.12
2017-07-03T02:35:42.780Z,7.77
2017-07-03T02:38:09.423Z,12.47
2017-07-03T02:40:36.082Z,8.82
2017-07-03T02:43:02.755Z,12.13
2017-07-03T02:45:29.400Z,5.67
2017-07-03T02:47:56.071Z,8.07
2017-07-03T02:50:22.729Z,9.60
2017-07-03T02:52:49.399Z,10.07
2017-07-03T02:55:16.070Z,5.53
2017-07-03T02:57:42.776Z,14.17
2017-07-03T03:00:09.471Z,10.93
2017-07-03T03:02:36.149Z,13.40
2017-07-03T03:05:02.834Z,10.93
2017-07-03T03:07:29.494Z,9.00
2017-07-03T03:09:56.148Z,6.83
2017-07-03T03:12:22.813Z,8.23
2017-07-03T03:14:49.455Z,8.57
2017-07-03T03:17:16.117Z,9.23
2017-07-03T03:19:42.792Z,10.23
2017-07-03T03:22:09.440Z,7.90
2017-07-03T03:24:36.081Z,8.60
2017-07-03T03:27:02.816Z,13.00
2017-07-03T03:29:29.460Z,13.33
2017-07-03T03:31:56.096Z,7.67
2017-07-03T03:34:22.779Z,8.70
2017-07-03T03:36:49.435Z,7.20
2017-07-03T03:39:16.084Z,10.50
2017-07-03T03:41:42.744Z,5.87
2017-07-03T03:44:09.394Z,6.10
2017-07-03T03:46:36.054Z,10.87
2017-07-03T03:49:02.748Z,7.97
2017-07-03T03:51:29.414Z,11.60
2017-07-03T03:53:56.069Z,8.13
2017-07-03T03:56:22.767Z,8.57
2017-07-03T03:58:49.408Z,3.97
2017-07-03T04:01:16.086Z,11.27
2017-07-03T04:03:42.778Z,4.43
2017-07-03T04:06:09.448Z,6.80
2017-07-03T04:08:36.111Z,4.10
2017-07-03T04:11:02.795Z,12.77
2017-07-03T04:13:29.442Z,4.80
2017-07-03T04:15:56.106Z,6.33
2017-07-03T04:18:22.816Z,7.10
2017-07-03T04:20:49.460Z,11.53
2017-07-03T04:23:16.096Z,5.47
2017-07-03T04:25:42.779Z,6.90
2017-07-03T04:28:09.435Z,5.50
2017-07-03T04:30:36.094Z,7.10
2017-07-03T04:33:02.790Z,3.70
2017-07-03T04:35:29.449Z,5.83
2017-07-03T04:37:56.111Z,10.97
2017-07-03T04:40:22.789Z,6.67
2017-07-03T04:42:49.438Z,6.77
2017-07-03T04:45:16.082Z,7.17
2017-07-03T04:47:42.771Z,14.40
2017-07-03T04:50:09.420Z,12.20
2017-07-03T04:52:36.118Z,11.80
2017-07-03T04:55:02.818Z,11.07
2017-07-03T04:57:29.452Z,14.50
2017-07-03T04:59:56.115Z,11.37
2017-07-03T05:02:22.772Z,14.50
2017-07-03T05:04:49.447Z,16.27
2017-07-03T05:07:16.096Z,18.17
2017-07-03T05:09:42.771Z,11.50
2017-07-03T05:12:09.404Z,16.93
2017-07-03T05:14:36.043Z,17.00
2017-07-03T05:17:02.703Z,13.03
2017-07-03T05:19:29.358Z,15.47
2017-07-03T05:21:56.019Z,19.10
2017-07-03T05:24:22.676Z,19.67
2017-07-03T05:26:49.315Z,15.47
2017-07-03T05:29:15.967Z,17.77
2017-07-03T05:31:42.674Z,12.00
2017-07-03T05:34:09.348Z,14.60
2017-07-03T05:36:36.029Z,11.67
2017-07-03T05:39:02.706Z,13.70
2017-07-03T05:41:29.360Z,12.90
2017-07-03T05:44:01.823Z,17.23
2017-07-03T05:46:28.484Z,17.13
2017-07-03T05:48:55.134Z,14.80
2017-07-03T05:51:21.810Z,13.13
2017-07-03T05:53:48.498Z,7.77
2017-07-03T05:56:15.219Z,11.37
2017-07-03T05:58:41.888Z,15.90
2017-07-03T06:01:08.578Z,6.33
2017-07-03T06:03:35.237Z,8.13
2017-07-03T06:06:01.876Z,9.50
2017-07-03T06:08:28.582Z,11.23
2017-07-03T06:10:55.280Z,12.03
2017-07-03T06:13:21.958Z,9.97
2017-07-03T06:15:49.524Z,14.03
2017-07-03T06:18:16.215Z,8.20
2017-07-03T06:20:42.898Z,8.93
2017-07-03T06:23:09.567Z,10.00
2017-07-03T06:25:36.235Z,14.23
2017-07-03T06:28:02.875Z,9.47
2017-07-03T06:30:29.550Z,14.90
2017-07-03T06:32:56.494Z,11.10
2017-07-03T06:35:23.155Z,10.80
2017-07-03T06:37:49.832Z,8.63
2017-07-03T06:40:16.516Z,8.60
2017-07-03T06:42:43.173Z,14.07
2017-07-03T06:45:09.832Z,10.70
2017-07-03T06:47:36.531Z,10.67
2017-07-03T06:50:03.204Z,8.43
2017-07-03T06:52:29.847Z,10.43
2017-07-03T06:54:56.548Z,7.63
2017-07-03T06:57:23.205Z,12.00
2017-07-03T06:59:49.865Z,6.93
2017-07-03T07:02:16.568Z,7.87
2017-07-03T07:04:43.270Z,8.50
2017-07-03T07:07:09.925Z,7.23
2017-07-03T07:09:36.628Z,13.63
2017-07-03T07:12:03.264Z,5.73
2017-07-03T07:14:29.920Z,10.07
2017-07-03T07:16:56.621Z,7.40
2017-07-03T07:19:23.277Z,12.23
2017-07-03T07:21:49.958Z,7.47
2017-07-03T07:24:16.600Z,11.77
2017-07-03T07:26:43.248Z,10.77
2017-07-03T07:29:09.947Z,6.03
2017-07-03T07:31:36.616Z,8.93
2017-07-03T07:34:03.276Z,6.77
2017-07-03T07:36:29.947Z,8.63
2017-07-03T07:38:56.607Z,13.00
2017-07-03T07:41:23.266Z,7.50
2017-07-03T07:43:49.943Z,5.80
2017-07-03T07:46:17.324Z,9.37
2017-07-03T07:48:43.980Z,8.57
2017-07-03T07:51:10.694Z,7.67
2017-07-03T07:53:37.349Z,8.47
2017-07-03T07:56:03.999Z,7.60
2017-07-03T07:58:30.674Z,4.57
2017-07-03T08:00:57.330Z,8.63
2017-07-03T08:03:23.991Z,8.23
2017-07-03T08:05:50.692Z,6.47
2017-07-03T08:08:17.343Z,6.67
2017-07-03T08:10:43.996Z,11.53
2017-07-03T08:13:10.710Z,5.73
2017-07-03T08:15:37.383Z,3.57
2017-07-03T08:18:04.023Z,11.30
2017-07-03T08:20:30.680Z,7.03
2017-07-03T08:22:57.350Z,14.63
2017-07-03T08:25:23.995Z,5.80
2017-07-03T08:27:50.675Z,8.90
2017-07-03T08:30:17.322Z,7.07
2017-07-03T08:32:44.115Z,14.70
2017-07-03T08:35:10.974Z,8.60
2017-07-03T08:37:37.671Z,9.33
2017-07-03T08:40:04.378Z,5.53
2017-07-03T08:42:31.120Z,6.53
2017-07-03T08:44:57.835Z,4.63
2017-07-03T08:47:24.512Z,6.63
2017-07-03T08:49:51.184Z,5.47
2017-07-03T08:52:17.928Z,4.57
2017-07-03T08:54:44.632Z,4.60
2017-07-03T08:57:11.319Z,6.00
2017-07-03T08:59:37.983Z,7.70
2017-07-03T09:02:04.639Z,4.67
2017-07-03T09:04:31.340Z,6.10
2017-07-03T09:06:58.009Z,8.33
2017-07-03T09:09:24.659Z,7.37
2017-07-03T09:11:51.344Z,6.83
2017-07-03T09:14:18.001Z,4.00
2017-07-03T09:16:44.675Z,4.27
2017-07-03T09:19:11.340Z,6.20
2017-07-03T09:21:38.015Z,6.00
2017-07-03T09:24:04.655Z,4.07
2017-07-03T09:26:31.359Z,6.40
2017-07-03T09:28:58.028Z,6.93
2017-07-03T09:31:24.688Z,7.00
2017-07-03T09:33:51.395Z,5.53
2017-07-03T09:36:18.027Z,7.43
2017-07-03T09:38:44.676Z,8.03
2017-07-03T09:41:11.346Z,5.40
2017-07-03T09:43:37.983Z,8.87
2017-07-03T09:46:04.616Z,5.73
2017-07-03T09:48:31.276Z,6.17
2017-07-03T09:50:57.913Z,7.27
2017-07-03T09:53:24.596Z,7.10
2017-07-03T09:55:51.274Z,6.93
2017-07-03T09:58:17.932Z,8.73
2017-07-03T10:00:44.630Z,9.43
2017-07-03T10:03:11.311Z,8.97
2017-07-03T10:05:37.955Z,7.10
2017-07-03T10:08:04.603Z,7.40
2017-07-03T10:10:31.281Z,4.70
2017-07-03T10:12:57.947Z,5.67
2017-07-03T10:15:24.584Z,5.83
2017-07-03T10:17:51.248Z,6.63
2017-07-03T10:20:17.887Z,5.27
2017-07-03T10:22:44.537Z,6.80
2017-07-03T10:25:11.192Z,8.57
2017-07-03T10:27:37.917Z,6.67
2017-07-03T10:30:04.552Z,6.93
2017-07-03T10:32:31.219Z,5.50
2017-07-03T10:34:57.867Z,5.33
2017-07-03T10:37:24.527Z,5.23
2017-07-03T10:39:51.218Z,6.53
2017-07-03T10:42:17.874Z,7.17
2017-07-03T10:44:44.523Z,5.33
2017-07-03T10:47:11.204Z,6.13
2017-07-03T10:49:37.874Z,4.53
2017-07-03T10:52:04.539Z,9.20
2017-07-03T10:54:31.219Z,5.17
2017-07-03T10:56:57.856Z,5.87
2017-07-03T10:59:24.494Z,6.50
2017-07-03T11:01:51.195Z,5.37
2017-07-03T11:04:17.836Z,3.80
2017-07-03T11:06:44.483Z,4.80
2017-07-03T11:09:11.135Z,8.30
2017-07-03T11:11:37.763Z,3.40
2017-07-03T11:14:04.421Z,3.57
2017-07-03T11:16:31.104Z,4.70
2017-07-03T11:18:57.740Z,4.60
2017-07-03T11:21:24.420Z,5.60
2017-07-03T11:23:51.064Z,6.17
2017-07-03T11:26:17.719Z,5.13
2017-07-03T11:28:44.360Z,4.83
2017-07-03T11:31:11.038Z,5.70
2017-07-03T11:33:37.691Z,4.07
2017-07-03T11:36:04.354Z,4.87
2017-07-03T11:38:31.027Z,4.13
2017-07-03T11:40:57.678Z,3.83
2017-07-03T11:43:24.313Z,7.07
2017-07-03T11:45:51.038Z,7.50
2017-07-03T11:48:17.680Z,10.53
2017-07-03T11:50:44.316Z,5.43
2017-07-03T11:53:10.987Z,4.53
2017-07-03T11:55:37.628Z,4.10
2017-07-03T11:58:04.264Z,4.60
2017-07-03T12:00:30.938Z,7.87
2017-07-03T12:02:57.578Z,7.33
2017-07-03T12:05:25.103Z,6.13
2017-07-03T12:07:51.764Z,6.70
2017-07-03T12:10:18.438Z,5.67
2017-07-03T12:12:45.080Z,5.70
2017-07-03T12:15:11.766Z,8.10
2017-07-03T12:17:38.447Z,6.10
2017-07-03T12:20:05.117Z,3.37
2017-07-03T12:22:31.804Z,3.80
2017-07-03T12:24:58.456Z,3.00
2017-07-03T12:27:25.118Z,3.93
2017-07-03T12:29:51.815Z,5.40
2017-07-03T12:32:18.465Z,5.27
2017-07-03T12:34:45.123Z,11.03
2017-07-03T12:37:11.806Z,8.40
2017-07-03T12:39:38.444Z,5.67
2017-07-03T12:42:05.080Z,4.77
2017-07-03T12:44:31.747Z,4.03
2017-07-03T12:46:58.416Z,4.17
2017-07-03T12:49:25.054Z,7.67
2017-07-03T12:51:51.712Z,5.57
2017-07-03T12:54:18.347Z,4.53
2017-07-03T12:56:44.988Z,2.87
2017-07-03T12:59:11.652Z,2.80
2017-07-03T13:01:38.315Z,3.03
2017-07-03T13:04:04.966Z,8.13
2017-07-03T13:06:31.632Z,3.87
2017-07-03T13:08:58.278Z,3.00
2017-07-03T13:11:24.969Z,5.43
2017-07-03T13:13:51.646Z,3.53
2017-07-03T13:16:18.317Z,6.77
2017-07-03T13:18:44.968Z,5.73
2017-07-03T13:21:11.637Z,5.07
2017-07-03T13:23:38.296Z,8.93
2017-07-03T13:26:04.945Z,2.50
2017-07-03T13:28:31.600Z,4.40
2017-07-03T13:30:58.244Z,7.93
2017-07-03T13:33:24.911Z,5.90
2017-07-03T13:35:51.592Z,4.53
2017-07-03T13:38:18.246Z,4.80
2017-07-03T13:40:44.884Z,4.10
2017-07-03T13:43:11.563Z,7.47
2017-07-03T13:45:38.199Z,7.17
2017-07-03T13:48:04.837Z,4.47
2017-07-03T13:50:31.504Z,4.63
2017-07-03T13:52:58.175Z,3.37
2017-07-03T13:55:24.843Z,2.67
2017-07-03T13:57:51.511Z,4.07
2017-07-03T14:00:18.175Z,3.33
2017-07-03T14:02:44.831Z,3.10
2017-07-03T14:05:11.511Z,4.67
2017-07-03T14:07:38.172Z,3.93
2017-07-03T14:10:04.819Z,9.90
2017-07-03T14:12:31.490Z,4.07
2017-07-03T14:14:58.138Z,3.80
2017-07-03T14:17:24.826Z,3.80
2017-07-03T14:19:51.463Z,3.97
2017-07-03T14:22:18.099Z,4.07
2017-07-03T14:24:44.762Z,3.90
2017-07-03T14:27:11.427Z,3.83
2017-07-03T14:29:38.090Z,3.17
2017-07-03T14:32:04.758Z,4.53
2017-07-03T14:34:31.406Z,4.73
2017-07-03T14:36:58.059Z,5.60
2017-07-03T14:39:24.721Z,6.10
2017-07-03T14:41:51.386Z,4.70
2017-07-03T14:44:18.034Z,4.33
2017-07-03T14:46:44.722Z,4.40
2017-07-03T14:49:11.356Z,4.50
2017-07-03T14:51:37.999Z,4.57
2017-07-03T14:54:04.686Z,5.33
2017-07-03T14:56:31.338Z,5.33
2017-07-03T14:58:58.007Z,4.80
2017-07-03T15:01:24.708Z,4.70
2017-07-03T15:03:51.359Z,5.83
2017-07-03T15:06:18.023Z,4.97
2017-07-03T15:08:44.707Z,5.03
2017-07-03T15:11:11.362Z,6.73
2017-07-03T15:13:38.032Z,5.87
2017-07-03T15:16:04.730Z,5.97
2017-07-03T15:18:31.383Z,6.77
2017-07-03T15:20:58.027Z,6.90
2017-07-03T15:23:24.701Z,8.33
2017-07-03T15:25:51.352Z,8.40
2017-07-03T15:28:17.997Z,7.73
2017-07-03T15:30:44.723Z,8.90
2017-07-03T15:33:11.379Z,8.87
2017-07-03T15:35:38.033Z,9.00
2017-07-03T15:38:04.750Z,8.73
2017-07-03T15:40:31.411Z,9.00
2017-07-03T15:42:58.107Z,8.47
2017-07-03T15:45:24.762Z,8.20
2017-07-03T15:47:51.401Z,8.57
2017-07-03T15:50:18.140Z,7.80
2017-07-03T15:52:44.805Z,9.43
2017-07-03T15:55:11.440Z,7.63
2017-07-03T15:57:38.102Z,7.10
2017-07-03T16:00:04.780Z,7.67
2017-07-03T16:02:31.434Z,8.00
2017-07-03T16:04:58.116Z,7.77
2017-07-03T16:07:24.763Z,9.10
2017-07-03T16:09:51.438Z,9.20
2017-07-03T16:12:18.113Z,8.70
2017-07-03T16:14:44.751Z,8.33
2017-07-03T16:17:11.406Z,6.23
2017-07-03T16:19:38.155Z,6.47
2017-07-03T16:22:04.813Z,5.50
2017-07-03T16:24:31.506Z,6.13
2017-07-03T16:26:58.188Z,5.90
2017-07-03T16:29:24.846Z,6.07
2017-07-03T16:31:51.481Z,5.50
2017-07-03T16:34:18.157Z,5.20
2017-07-03T16:36:44.900Z,8.17
2017-07-03T16:39:11.582Z,5.43
2017-07-03T16:41:38.272Z,5.07
2017-07-03T16:44:04.938Z,5.30
2017-07-03T16:46:31.606Z,5.93
2017-07-03T16:48:58.290Z,6.97
2017-07-03T16:51:24.940Z,7.10
2017-07-03T16:53:51.607Z,6.90
2017-07-03T16:56:18.290Z,4.53
2017-07-03T16:58:44.983Z,5.80
2017-07-03T17:01:11.637Z,7.43
2017-07-03T17:03:38.288Z,4.43
2017-07-03T17:06:05.031Z,7.07
2017-07-03T17:08:31.667Z,5.10
2017-07-03T17:10:58.330Z,4.90
2017-07-03T17:13:25.019Z,5.07
2017-07-03T17:15:51.684Z,5.93
2017-07-03T17:18:18.346Z,6.10
2017-07-03T17:20:45.006Z,4.33
2017-07-03T17:23:11.666Z,5.63
2017-07-03T17:25:38.339Z,10.30
2017-07-03T17:28:05.029Z,7.80
2017-07-03T17:30:31.711Z,6.83
2017-07-03T17:32:58.365Z,4.90
2017-07-03T17:35:25.047Z,7.73
2017-07-03T17:37:51.687Z,4.13
2017-07-03T17:40:18.338Z,9.00
2017-07-03T17:42:45.042Z,5.63
2017-07-03T17:45:11.703Z,11.47
2017-07-03T17:47:38.355Z,3.27
2017-07-03T17:50:05.037Z,5.53
2017-07-03T17:52:31.695Z,6.17
2017-07-03T17:54:58.351Z,6.33
2017-07-03T17:57:27.870Z,7.10
2017-07-03T17:59:54.651Z,8.67
2017-07-03T18:02:21.303Z,3.47
2017-07-03T18:04:47.991Z,4.47
2017-07-03T18:07:14.640Z,6.23
2017-07-03T18:09:41.367Z,5.30
2017-07-03T18:12:08.055Z,7.30
2017-07-03T18:14:34.692Z,5.83
2017-07-03T18:17:01.328Z,3.87
2017-07-03T18:19:27.986Z,5.57
2017-07-03T18:21:54.626Z,6.00
2017-07-03T18:24:21.267Z,6.63
2017-07-03T18:26:47.968Z,8.60
2017-07-03T18:29:14.680Z,7.10
2017-07-03T18:31:41.320Z,3.33
2017-07-03T18:34:07.975Z,4.70
2017-07-03T18:36:34.658Z,4.43
2017-07-03T18:39:01.900Z,7.87
2017-07-03T18:41:28.689Z,5.23
2017-07-03T18:43:55.435Z,6.07
2017-07-03T18:46:22.264Z,5.40
2017-07-03T18:48:48.924Z,6.37
2017-07-03T18:51:15.583Z,5.70
2017-07-03T18:53:42.272Z,4.07
2017-07-03T18:56:08.927Z,3.40
2017-07-03T18:58:35.659Z,5.60
2017-07-03T19:01:02.348Z,5.60
2017-07-03T19:03:29.011Z,4.43
2017-07-03T19:05:55.661Z,5.00
2017-07-03T19:08:22.333Z,5.70
2017-07-03T19:10:48.981Z,7.37
2017-07-03T19:13:15.623Z,8.60
2017-07-03T19:15:42.315Z,6.43
2017-07-03T19:18:08.970Z,6.00
2017-07-03T19:20:35.611Z,4.43
2017-07-03T19:23:02.347Z,5.10
2017-07-03T19:25:28.984Z,5.13
2017-07-03T19:27:55.700Z,6.80
2017-07-03T19:30:22.338Z,5.07
2017-07-03T19:32:48.979Z,4.90
2017-07-03T19:35:15.659Z,4.70
2017-07-03T19:37:42.335Z,3.50
2017-07-03T19:40:09.026Z,3.40
2017-07-03T19:42:35.664Z,4.40
2017-07-03T19:45:02.303Z,3.53
2017-07-03T19:47:29.000Z,5.40
2017-07-03T19:49:55.650Z,5.63
2017-07-03T19:52:22.291Z,8.63
2017-07-03T19:54:48.979Z,5.87
2017-07-03T19:57:15.632Z,4.77
2017-07-03T19:59:42.273Z,3.00
2017-07-03T20:02:08.974Z,2.20
2017-07-03T20:04:35.671Z,2.40
2017-07-03T20:07:02.375Z,2.60
2017-07-03T20:09:29.067Z,2.00
2017-07-03T20:11:55.742Z,2.30
2017-07-03T20:14:22.399Z,2.17
2017-07-03T20:16:49.130Z,4.07
2017-07-03T20:19:15.768Z,2.10
2017-07-03T20:21:42.579Z,2.70
2017-07-03T20:24:09.238Z,2.10
2017-07-03T20:26:35.877Z,1.87
2017-07-03T20:29:02.536Z,2.47
2017-07-03T20:31:29.176Z,2.50
2017-07-03T20:33:55.822Z,3.70
2017-07-03T20:36:22.500Z,4.37
2017-07-03T20:38:49.164Z,3.27
2017-07-03T20:41:15.831Z,3.30
2017-07-03T20:43:42.513Z,3.23
2017-07-03T20:46:09.180Z,4.77
2017-07-03T20:48:35.839Z,2.30
2017-07-03T20:51:02.508Z,1.90
2017-07-03T20:53:29.188Z,1.97
2017-07-03T20:55:55.834Z,2.10
2017-07-03T20:58:22.522Z,2.20
2017-07-03T21:00:49.228Z,2.47
2017-07-03T21:03:15.864Z,2.27
2017-07-03T21:05:42.499Z,1.93
2017-07-03T21:08:09.175Z,2.07
2017-07-03T21:10:35.813Z,2.93
2017-07-03T21:13:02.467Z,2.63
2017-07-03T21:15:29.180Z,2.93
2017-07-03T21:17:55.889Z,2.23
2017-07-03T21:20:23.056Z,3.20
2017-07-03T21:22:49.716Z,2.30
2017-07-03T21:25:16.404Z,3.30
2017-07-03T21:27:43.061Z,4.33
2017-07-03T21:30:09.708Z,2.40
2017-07-03T21:32:36.379Z,1.97
2017-07-03T21:35:03.067Z,4.30
2017-07-03T21:37:29.750Z,2.63
2017-07-03T21:39:56.387Z,2.53
2017-07-03T21:42:23.023Z,1.97
2017-07-03T21:44:49.675Z,2.53
2017-07-03T21:47:16.367Z,2.00
2017-07-03T21:49:43.006Z,2.00
2017-07-03T21:52:09.656Z,3.10
2017-07-03T21:54:36.340Z,2.10
2017-07-03T21:57:03.023Z,2.30
2017-07-03T21:59:29.720Z,6.27
2017-07-03T22:01:56.400Z,2.50
2017-07-03T22:04:23.054Z,2.43
2017-07-03T22:06:49.734Z,1.93
2017-07-03T22:09:16.387Z,4.07
2017-07-03T22:11:43.053Z,2.27
2017-07-03T22:14:09.704Z,2.23
2017-07-03T22:16:36.354Z,2.27
2017-07-03T22:19:03.027Z,4.03
2017-07-03T22:21:29.678Z,3.30
2017-07-03T22:23:56.333Z,2.80
2017-07-03T22:26:23.025Z,2.67
2017-07-03T22:28:49.678Z,3.23
2017-07-03T22:31:16.383Z,2.97
2017-07-03T22:33:43.044Z,3.37
2017-07-03T22:36:09.698Z,3.00
2017-07-03T22:38:36.379Z,2.40
2017-07-03T22:41:03.256Z,3.30
2017-07-03T22:43:29.898Z,5.00
2017-07-03T22:45:56.562Z,3.13
2017-07-03T22:48:23.200Z,2.23
2017-07-03T22:50:49.864Z,3.13
2017-07-03T22:53:16.535Z,3.57
2017-07-03T22:55:43.201Z,2.73
2017-07-03T22:58:09.880Z,4.10
2017-07-03T23:00:36.530Z,2.70
2017-07-03T23:03:03.175Z,6.30
2017-07-03T23:05:29.858Z,2.60
2017-07-03T23:07:56.497Z,2.83
2017-07-03T23:10:23.138Z,2.60
2017-07-03T23:12:49.817Z,2.30
2017-07-03T23:15:16.481Z,3.73
2017-07-03T23:17:43.140Z,2.63
2017-07-03T23:20:09.823Z,2.83
2017-07-03T23:22:36.500Z,4.00
2017-07-03T23:25:03.153Z,4.63
2017-07-03T23:27:29.840Z,6.20
2017-07-03T23:29:56.494Z,2.50
2017-07-03T23:32:23.217Z,2.67
2017-07-03T23:34:49.910Z,2.90
2017-07-03T23:37:16.542Z,3.03
2017-07-03T23:39:43.194Z,2.60
2017-07-03T23:42:09.884Z,2.67
2017-07-03T23:44:36.557Z,3.47
2017-07-03T23:47:03.222Z,3.07
2017-07-03T23:49:29.905Z,3.90
2017-07-03T23:51:56.566Z,5.77
2017-07-03T23:54:23.240Z,3.10
2017-07-03T23:56:49.902Z,2.97
2017-07-03T23:59:16.579Z,5.13
